Weather Station Data

Station Data Captured at Five Minute Intervals Since Midnight Yesterday


Date Time Temp. RH % Dew Pt. Wind Speed Wind Dir. Peak Wind Wind Chill Pressure Precip. Solar W/m2 ET
5/20/18 11:40a 78.0 76 69.8 0.0 S 1.0 78.0 30.068 0.00 690 0.000
5/20/18 11:35a 78.0 75 69.4 0.0 SSW 1.0 78.0 30.066 0.00 630 0.000
5/20/18 11:30a 77.8 73 68.4 0.0 W 2.0 77.8 30.067 0.00 520 0.000
5/20/18 11:25a 77.7 75 69.1 0.0 W 1.0 77.7 30.065 0.00 531 0.000
5/20/18 11:20a 77.4 73 68.1 0.0 WNW 4.0 77.4 30.064 0.00 807 0.000
5/20/18 11:15a 77.2 75 68.7 0.0 SSE 1.0 77.2 30.061 0.00 285 0.000
5/20/18 11:10a 77.1 74 68.2 0.0 WNW 3.0 77.1 30.060 0.00 164 0.000
5/20/18 11:05a 76.8 73 67.5 1.0 WNW 5.0 76.8 30.058 0.00 128 0.000
5/20/18 11:00a 76.3 76 68.2 0.0 --- 0.0 76.3 30.059 0.00 157 0.003
5/20/18 10:55a 76.0 76 67.9 0.0 NW 3.0 76.0 30.055 0.00 175 0.000
5/20/18 10:50a 75.6 76 67.5 0.0 --- 0.0 75.6 30.053 0.00 97 0.000
5/20/18 10:45a 75.2 77 67.5 0.0 NW 3.0 75.2 30.056 0.00 188 0.000
5/20/18 10:40a 74.9 78 67.6 0.0 WNW 2.0 74.9 30.059 0.00 96 0.000
5/20/18 10:35a 74.7 80 68.1 0.0 WNW 4.0 74.7 30.057 0.00 99 0.000
5/20/18 10:30a 74.6 80 68.0 0.0 W 4.0 74.6 30.057 0.00 121 0.000
5/20/18 10:25a 74.4 81 68.2 0.0 --- 0.0 74.4 30.057 0.00 85 0.000
5/20/18 10:20a 74.2 81 68.0 0.0 NW 3.0 74.2 30.058 0.00 126 0.000
5/20/18 10:15a 73.8 81 67.6 0.0 NW 2.0 73.8 30.055 0.00 110 0.000
5/20/18 10:10a 73.6 82 67.8 0.0 WNW 2.0 73.6 30.053 0.00 89 0.000
5/20/18 10:05a 73.3 83 67.8 0.0 WNW 2.0 73.3 30.050 0.00 84 0.000
5/20/18 10:00a 72.9 83 67.4 0.0 WNW 1.0 72.9 30.054 0.00 268 0.004
5/20/18 9:55a 72.5 84 67.4 0.0 W 3.0 72.5 30.051 0.00 249 0.000
5/20/18 9:50a 72.1 84 67.0 0.0 W 4.0 72.1 30.050 0.00 292 0.000
5/20/18 9:45a 71.8 85 67.0 0.0 NW 4.0 71.8 30.047 0.00 235 0.000
5/20/18 9:40a 71.4 85 66.7 0.0 WNW 1.0 71.4 30.048 0.00 113 0.000
5/20/18 9:35a 71.1 85 66.4 0.0 WNW 5.0 71.1 30.045 0.00 84 0.000
5/20/18 9:30a 70.9 85 66.2 0.0 W 2.0 70.9 30.042 0.00 141 0.000
5/20/18 9:25a 70.6 86 66.2 0.0 S 2.0 70.6 30.040 0.00 87 0.000
5/20/18 9:20a 70.3 85 65.6 0.0 SE 3.0 70.3 30.037 0.00 60 0.000
5/20/18 9:15a 70.1 86 65.7 0.0 --- 0.0 70.1 30.036 0.00 145 0.000
5/20/18 9:10a 69.9 86 65.5 0.0 W 2.0 69.9 30.034 0.00 334 0.000
5/20/18 9:05a 69.5 86 65.1 0.0 --- 0.0 69.5 30.031 0.00 329 0.000
5/20/18 9:00a 69.2 86 64.8 0.0 SSE 5.0 69.2 30.033 0.00 303 0.003
5/20/18 8:55a 68.9 86 64.5 0.0 SSE 5.0 68.9 30.039 0.00 246 0.000
5/20/18 8:50a 68.7 87 64.7 0.0 S 2.0 68.7 30.038 0.00 280 0.000
5/20/18 8:45a 68.3 87 64.3 0.0 SSW 2.0 68.3 30.038 0.00 249 0.000
5/20/18 8:40a 68.0 87 64.0 0.0 SSW 1.0 68.0 30.035 0.00 106 0.000
5/20/18 8:35a 67.8 87 63.8 0.0 SSW 3.0 67.8 30.039 0.00 51 0.000
5/20/18 8:30a 67.6 87 63.6 0.0 S 2.0 67.6 30.039 0.00 55 0.000
5/20/18 8:25a 67.5 87 63.5 0.0 S 1.0 67.5 30.039 0.00 56 0.000
5/20/18 8:20a 67.3 88 63.6 0.0 SSE 1.0 67.3 30.037 0.00 64 0.000
5/20/18 8:15a 67.1 88 63.4 0.0 SSW 3.0 67.1 30.037 0.00 44 0.000
5/20/18 8:10a 66.9 88 63.2 0.0 SSW 3.0 66.9 30.039 0.00 53 0.000
5/20/18 8:05a 66.7 88 63.0 0.0 SSW 1.0 66.7 30.035 0.00 43 0.000
5/20/18 8:00a 66.5 88 62.8 0.0 SSE 1.0 66.5 30.035 0.00 52 0.001
5/20/18 7:55a 66.3 88 62.6 0.0 SSW 1.0 66.3 30.034 0.00 71 0.000
5/20/18 7:50a 66.1 89 62.8 0.0 --- 0.0 66.1 30.035 0.00 66 0.000
5/20/18 7:45a 65.9 89 62.6 0.0 SSW 2.0 65.9 30.036 0.00 59 0.000
5/20/18 7:40a 65.7 89 62.4 0.0 --- 0.0 65.7 30.032 0.00 84 0.000
5/20/18 7:35a 65.4 89 62.1 0.0 SSW 2.0 65.4 30.029 0.00 61 0.000
5/20/18 7:30a 65.1 89 61.8 0.0 --- 0.0 65.1 30.026 0.00 68 0.000
5/20/18 7:25a 65.0 89 61.7 0.0 --- 0.0 65.0 30.024 0.00 46 0.000
5/20/18 7:20a 64.9 89 61.6 0.0 --- 0.0 64.9 30.023 0.00 33 0.000
5/20/18 7:15a 64.9 89 61.6 0.0 --- 0.0 64.9 30.023 0.00 28 0.000
5/20/18 7:10a 64.9 89 61.6 0.0 --- 0.0 64.9 30.024 0.00 24 0.000
5/20/18 7:05a 64.8 89 61.5 0.0 --- 0.0 64.8 30.019 0.00 19 0.000
5/20/18 7:00a 64.8 89 61.5 0.0 --- 0.0 64.8 30.015 0.00 13 0.000
5/20/18 6:55a 64.8 89 61.5 0.0 --- 0.0 64.8 30.012 0.00 11 0.000
5/20/18 6:50a 64.8 89 61.5 0.0 S 3.0 64.8 30.007 0.00 8 0.000
5/20/18 6:45a 64.8 89 61.5 0.0 S 2.0 64.8 30.005 0.01 6 0.000
5/20/18 6:40a 64.8 89 61.5 0.0 S 2.0 64.8 30.003 0.00 5 0.000
5/20/18 6:35a 64.8 89 61.5 0.0 SSW 2.0 64.8 30.004 0.00 1 0.000
5/20/18 6:30a 64.8 89 61.5 0.0 SSW 2.0 64.8 30.005 0.00 0 0.000
5/20/18 6:25a 64.9 89 61.6 0.0 SW 2.0 64.9 30.002 0.00 0 0.000
5/20/18 6:20a 64.9 89 61.6 0.0 --- 0.0 64.9 29.993 0.00 0 0.000
5/20/18 6:15a 65.0 89 61.7 0.0 SSW 2.0 65.0 29.998 0.00 0 0.000
5/20/18 6:10a 65.0 89 61.7 0.0 --- 0.0 65.0 29.999 0.00 0 0.000
5/20/18 6:05a 65.0 89 61.7 0.0 S 1.0 65.0 30.001 0.00 0 0.000
5/20/18 6:00a 65.0 89 61.7 0.0 S 1.0 65.0 30.001 0.00 0 0.000
5/20/18 5:55a 65.1 89 61.8 0.0 --- 0.0 65.1 30.002 0.00 0 0.000
5/20/18 5:50a 65.2 89 61.9 0.0 --- 0.0 65.2 30.003 0.00 0 0.000
5/20/18 5:45a 65.2 89 61.9 0.0 --- 0.0 65.2 30.004 0.00 0 0.000
5/20/18 5:40a 65.2 89 61.9 0.0 --- 0.0 65.2 29.997 0.00 0 0.000
5/20/18 5:35a 65.1 88 61.5 0.0 --- 0.0 65.1 29.996 0.00 0 0.000
5/20/18 5:30a 65.1 88 61.5 0.0 --- 0.0 65.1 29.998 0.00 0 0.000
5/20/18 5:25a 65.2 88 61.6 0.0 --- 0.0 65.2 29.998 0.00 0 0.000
5/20/18 5:20a 65.4 88 61.8 0.0 --- 0.0 65.4 29.998 0.00 0 0.000
5/20/18 5:15a 65.5 88 61.9 0.0 --- 0.0 65.5 30.000 0.00 0 0.000
5/20/18 5:10a 65.6 88 61.9 0.0 --- 0.0 65.6 30.000 0.00 0 0.000
5/20/18 5:05a 65.8 88 62.1 0.0 --- 0.0 65.8 30.000 0.00 0 0.000
5/20/18 5:00a 65.8 88 62.1 0.0 --- 0.0 65.8 29.995 0.00 0 0.000
5/20/18 4:55a 65.9 88 62.2 0.0 --- 0.0 65.9 29.996 0.00 0 0.000
5/20/18 4:50a 65.9 88 62.2 0.0 --- 0.0 65.9 29.996 0.00 0 0.000
5/20/18 4:45a 66.0 88 62.3 0.0 --- 0.0 66.0 29.993 0.00 0 0.000
5/20/18 4:40a 66.0 88 62.3 0.0 --- 0.0 66.0 29.991 0.00 0 0.000
5/20/18 4:35a 66.0 88 62.3 0.0 S 1.0 66.0 29.992 0.00 0 0.000
5/20/18 4:30a 66.1 88 62.4 0.0 --- 0.0 66.1 29.993 0.00 0 0.000
5/20/18 4:25a 66.1 89 62.8 0.0 --- 0.0 66.1 29.992 0.00 0 0.000
5/20/18 4:20a 66.0 88 62.3 0.0 --- 0.0 66.0 29.993 0.00 0 0.000
5/20/18 4:15a 66.0 88 62.3 0.0 --- 0.0 66.0 29.992 0.00 0 0.000
5/20/18 4:10a 66.0 88 62.3 0.0 --- 0.0 66.0 29.991 0.00 0 0.000
5/20/18 4:05a 66.0 88 62.3 0.0 --- 0.0 66.0 29.994 0.00 0 0.000
5/20/18 4:00a 66.0 88 62.3 0.0 --- 0.0 66.0 29.989 0.00 0 0.000
5/20/18 3:55a 66.0 88 62.3 0.0 --- 0.0 66.0 29.990 0.00 0 0.000
5/20/18 3:50a 66.0 88 62.3 0.0 --- 0.0 66.0 29.989 0.00 0 0.000
5/20/18 3:45a 65.9 88 62.2 0.0 --- 0.0 65.9 29.990 0.00 0 0.000
5/20/18 3:40a 66.1 88 62.4 0.0 --- 0.0 66.1 29.990 0.00 0 0.000
5/20/18 3:35a 66.2 88 62.5 0.0 --- 0.0 66.2 29.981 0.00 0 0.000
5/20/18 3:30a 66.2 88 62.5 0.0 --- 0.0 66.2 29.980 0.00 0 0.000
5/20/18 3:25a 66.3 88 62.6 0.0 --- 0.0 66.3 29.981 0.00 0 0.000
5/20/18 3:20a 66.2 88 62.5 0.0 --- 0.0 66.2 29.979 0.00 0 0.000
5/20/18 3:15a 66.3 88 62.6 0.0 --- 0.0 66.3 29.975 0.00 0 0.000
5/20/18 3:10a 66.5 88 62.8 0.0 --- 0.0 66.5 29.973 0.00 0 0.000
5/20/18 3:05a 66.5 88 62.8 0.0 --- 0.0 66.5 29.973 0.00 0 0.000
5/20/18 3:00a 66.5 88 62.8 0.0 --- 0.0 66.5 29.973 0.00 0 0.000
5/20/18 2:55a 66.5 88 62.8 0.0 SSW 1.0 66.5 29.971 0.00 0 0.000
5/20/18 2:50a 66.5 88 62.8 0.0 S 2.0 66.5 29.971 0.00 0 0.000
5/20/18 2:45a 66.4 88 62.7 0.0 --- 0.0 66.4 29.973 0.00 0 0.000
5/20/18 2:40a 66.4 88 62.7 0.0 --- 0.0 66.4 29.969 0.00 0 0.000
5/20/18 2:35a 66.5 88 62.8 0.0 --- 0.0 66.5 29.968 0.00 0 0.000
5/20/18 2:30a 66.5 88 62.8 0.0 --- 0.0 66.5 29.968 0.00 0 0.000
5/20/18 2:25a 66.6 88 62.9 0.0 --- 0.0 66.6 29.971 0.00 0 0.000
5/20/18 2:20a 66.7 88 63.0 0.0 --- 0.0 66.7 29.970 0.00 0 0.000
5/20/18 2:15a 66.8 88 63.1 0.0 --- 0.0 66.8 29.970 0.00 0 0.000
5/20/18 2:10a 66.8 88 63.1 0.0 --- 0.0 66.8 29.970 0.00 0 0.000
5/20/18 2:05a 66.8 88 63.1 0.0 --- 0.0 66.8 29.964 0.00 0 0.000
5/20/18 2:00a 66.7 87 62.7 0.0 --- 0.0 66.7 29.962 0.00 0 0.000
5/20/18 1:55a 67.0 87 63.0 0.0 --- 0.0 67.0 29.964 0.00 0 0.000
5/20/18 1:50a 67.1 87 63.1 0.0 --- 0.0 67.1 29.962 0.00 0 0.000
5/20/18 1:45a 67.3 87 63.3 0.0 --- 0.0 67.3 29.963 0.00 0 0.000
5/20/18 1:40a 67.4 87 63.4 0.0 --- 0.0 67.4 29.961 0.00 0 0.000
5/20/18 1:35a 67.6 87 63.6 0.0 --- 0.0 67.6 29.960 0.00 0 0.000
5/20/18 1:30a 67.6 87 63.6 0.0 --- 0.0 67.6 29.963 0.00 0 0.000
5/20/18 1:25a 67.7 87 63.7 0.0 --- 0.0 67.7 29.962 0.00 0 0.000
5/20/18 1:20a 67.8 87 63.8 0.0 --- 0.0 67.8 29.963 0.00 0 0.000
5/20/18 1:15a 67.9 87 63.9 0.0 --- 0.0 67.9 29.962 0.00 0 0.000
5/20/18 1:10a 67.9 87 63.9 0.0 --- 0.0 67.9 29.960 0.00 0 0.000
5/20/18 1:05a 68.0 87 64.0 0.0 --- 0.0 68.0 29.958 0.00 0 0.000
5/20/18 1:00a 68.1 87 64.1 0.0 --- 0.0 68.1 29.958 0.00 0 0.000
5/20/18 12:55a 68.2 87 64.2 0.0 SSW 1.0 68.2 29.961 0.00 0 0.000
5/20/18 12:50a 68.2 87 64.2 0.0 --- 0.0 68.2 29.961 0.00 0 0.000
5/20/18 12:45a 68.2 87 64.2 0.0 --- 0.0 68.2 29.962 0.00 0 0.000
5/20/18 12:40a 68.2 87 64.2 0.0 --- 0.0 68.2 29.964 0.00 0 0.000
5/20/18 12:35a 68.3 87 64.3 0.0 S 1.0 68.3 29.964 0.00 0 0.000
5/20/18 12:30a 68.3 87 64.3 0.0 --- 0.0 68.3 29.967 0.00 0 0.000
5/20/18 12:25a 68.4 87 64.4 0.0 --- 0.0 68.4 29.965 0.00 0 0.000
5/20/18 12:20a 68.5 87 64.5 0.0 --- 0.0 68.5 29.967 0.00 0 0.000
5/20/18 12:15a 68.5 87 64.5 0.0 --- 0.0 68.5 29.971 0.00 0 0.000
5/20/18 12:10a 68.6 87 64.6 0.0 --- 0.0 68.6 29.969 0.00 0 0.000
5/20/18 12:05a 68.7 87 64.7 0.0 --- 0.0 68.7 29.968 0.00 0 0.000
5/20/18 12:00a 68.8 87 64.8 0.0 S 1.0 68.8 29.968 0.00 0 0.000
5/19/18 11:55p 68.8 87 64.8 0.0 S 2.0 68.8 29.970 0.00 0 0.000
5/19/18 11:50p 68.8 87 64.8 0.0 SSE 2.0 68.8 29.969 0.00 0 0.000
5/19/18 11:45p 68.9 87 64.9 0.0 S 1.0 68.9 29.967 0.00 0 0.000
5/19/18 11:40p 68.9 87 64.9 0.0 --- 0.0 68.9 29.964 0.00 0 0.000
5/19/18 11:35p 68.9 87 64.9 0.0 --- 0.0 68.9 29.960 0.00 0 0.000
5/19/18 11:30p 69.0 87 65.0 0.0 SSE 4.0 69.0 29.960 0.00 0 0.000
5/19/18 11:25p 69.0 87 65.0 0.0 S 3.0 69.0 29.956 0.00 0 0.000
5/19/18 11:20p 69.0 87 65.0 0.0 --- 0.0 69.0 29.955 0.00 0 0.000
5/19/18 11:15p 69.0 87 65.0 0.0 --- 0.0 69.0 29.952 0.00 0 0.000
5/19/18 11:10p 69.0 87 65.0 0.0 --- 0.0 69.0 29.951 0.00 0 0.000
5/19/18 11:05p 69.0 87 65.0 0.0 --- 0.0 69.0 29.953 0.00 0 0.000
5/19/18 11:00p 69.1 87 65.1 0.0 S 1.0 69.1 29.953 0.00 0 0.000
5/19/18 10:55p 69.1 87 65.1 0.0 --- 0.0 69.1 29.951 0.00 0 0.000
5/19/18 10:50p 69.1 87 65.1 0.0 --- 0.0 69.1 29.949 0.00 0 0.000
5/19/18 10:45p 69.1 87 65.1 0.0 S 2.0 69.1 29.948 0.00 0 0.000
5/19/18 10:40p 69.1 87 65.1 0.0 --- 0.0 69.1 29.949 0.00 0 0.000
5/19/18 10:35p 69.1 87 65.1 0.0 --- 0.0 69.1 29.949 0.00 0 0.000
5/19/18 10:30p 69.2 87 65.2 0.0 --- 0.0 69.2 29.947 0.00 0 0.000
5/19/18 10:25p 69.2 87 65.2 0.0 SSE 1.0 69.2 29.946 0.00 0 0.000
5/19/18 10:20p 69.2 86 64.8 0.0 S 4.0 69.2 29.944 0.00 0 0.000
5/19/18 10:15p 69.2 86 64.8 0.0 --- 0.0 69.2 29.940 0.00 0 0.000
5/19/18 10:10p 69.3 86 64.9 0.0 --- 0.0 69.3 29.938 0.00 0 0.000
5/19/18 10:05p 69.3 86 64.9 0.0 --- 0.0 69.3 29.936 0.00 0 0.000
5/19/18 10:00p 69.3 87 65.3 0.0 --- 0.0 69.3 29.938 0.00 0 0.000
5/19/18 9:55p 69.3 87 65.3 0.0 --- 0.0 69.3 29.936 0.00 0 0.000
5/19/18 9:50p 69.4 87 65.4 0.0 --- 0.0 69.4 29.934 0.00 0 0.000
5/19/18 9:45p 69.5 87 65.5 0.0 SSW 1.0 69.5 29.934 0.00 0 0.000
5/19/18 9:40p 69.5 87 65.5 0.0 --- 0.0 69.5 29.932 0.00 0 0.000
5/19/18 9:35p 69.6 87 65.6 0.0 --- 0.0 69.6 29.932 0.00 0 0.000
5/19/18 9:30p 69.7 87 65.7 0.0 --- 0.0 69.7 29.931 0.00 0 0.000
5/19/18 9:25p 69.9 87 65.9 0.0 --- 0.0 69.9 29.932 0.00 0 0.000
5/19/18 9:20p 70.0 87 66.0 0.0 --- 0.0 70.0 29.930 0.00 0 0.000
5/19/18 9:15p 70.2 87 66.1 0.0 --- 0.0 70.2 29.928 0.00 0 0.000
5/19/18 9:10p 70.3 87 66.2 0.0 SSW 1.0 70.3 29.929 0.00 0 0.000
5/19/18 9:05p 70.4 87 66.3 0.0 --- 0.0 70.4 29.929 0.00 0 0.000
5/19/18 9:00p 70.6 86 66.2 0.0 --- 0.0 70.6 29.925 0.00 0 0.000
5/19/18 8:55p 70.8 86 66.4 0.0 --- 0.0 70.8 29.923 0.00 0 0.000
5/19/18 8:50p 71.0 86 66.6 0.0 --- 0.0 71.0 29.919 0.00 3 0.000
5/19/18 8:45p 71.1 86 66.7 0.0 --- 0.0 71.1 29.916 0.00 8 0.000
5/19/18 8:40p 71.3 86 66.9 0.0 --- 0.0 71.3 29.916 0.00 10 0.000
5/19/18 8:35p 71.5 86 67.1 0.0 --- 0.0 71.5 29.913 0.00 14 0.000
5/19/18 8:30p 71.6 86 67.2 0.0 SSW 1.0 71.6 29.910 0.00 19 0.000
5/19/18 8:25p 71.7 86 67.3 0.0 SSW 2.0 71.7 29.905 0.00 23 0.000
5/19/18 8:20p 71.8 85 67.0 0.0 SSE 1.0 71.8 29.900 0.00 25 0.000
5/19/18 8:15p 72.0 85 67.2 0.0 --- 0.0 72.0 29.900 0.00 28 0.000
5/19/18 8:10p 72.0 85 67.2 0.0 S 2.0 72.0 29.899 0.00 26 0.000
5/19/18 8:05p 72.1 85 67.3 0.0 S 1.0 72.1 29.899 0.00 29 0.000
5/19/18 8:00p 72.2 85 67.4 0.0 SSE 3.0 72.2 29.893 0.00 27 0.002
5/19/18 7:55p 72.3 85 67.5 0.0 SSW 1.0 72.3 29.889 0.00 25 0.000
5/19/18 7:50p 72.5 85 67.7 0.0 SSW 2.0 72.5 29.889 0.00 31 0.000
5/19/18 7:45p 72.5 85 67.7 0.0 S 3.0 72.5 29.891 0.00 35 0.000
5/19/18 7:40p 72.6 85 67.8 0.0 SSW 3.0 72.6 29.889 0.00 39 0.000
5/19/18 7:35p 72.6 85 67.8 0.0 SSW 3.0 72.6 29.887 0.00 42 0.000
5/19/18 7:30p 72.5 85 67.7 0.0 SSW 4.0 72.5 29.885 0.00 58 0.000
5/19/18 7:25p 72.3 85 67.5 0.0 SSW 3.0 72.3 29.884 0.00 161 0.000
5/19/18 7:20p 72.1 85 67.3 0.0 SSW 6.0 72.1 29.887 0.00 238 0.000
5/19/18 7:15p 71.8 85 67.0 0.0 SSW 3.0 71.8 29.887 0.00 90 0.000
5/19/18 7:10p 71.9 85 67.1 1.0 SSW 5.0 71.9 29.887 0.00 57 0.000
5/19/18 7:05p 72.1 85 67.3 0.0 SSW 3.0 72.1 29.881 0.00 35 0.000
5/19/18 7:00p 72.3 85 67.5 0.0 SSW 4.0 72.3 29.881 0.00 28 0.005
5/19/18 6:55p 72.6 84 67.5 0.0 S 3.0 72.6 29.881 0.00 80 0.000
5/19/18 6:50p 72.7 84 67.6 0.0 S 3.0 72.7 29.882 0.00 94 0.000
5/19/18 6:45p 73.1 84 68.0 0.0 S 3.0 73.1 29.879 0.00 70 0.000
5/19/18 6:40p 73.2 84 68.1 0.0 S 2.0 73.2 29.874 0.00 328 0.000
5/19/18 6:35p 73.2 84 68.1 0.0 S 4.0 73.2 29.873 0.00 360 0.000
5/19/18 6:30p 73.2 84 68.1 1.0 SSW 4.0 73.2 29.873 0.00 362 0.000
5/19/18 6:25p 73.0 83 67.5 1.0 S 6.0 73.0 29.876 0.00 148 0.000
5/19/18 6:20p 73.0 83 67.5 2.0 SSE 8.0 73.0 29.879 0.00 168 0.000
5/19/18 6:15p 73.5 82 67.7 1.0 SSE 5.0 73.5 29.880 0.00 182 0.000
5/19/18 6:10p 73.6 83 68.1 0.0 S 3.0 73.6 29.879 0.00 312 0.000
5/19/18 6:05p 73.4 82 67.6 1.0 S 4.0 73.4 29.876 0.00 421 0.000
5/19/18 6:00p 73.4 82 67.6 1.0 S 6.0 73.4 29.874 0.00 450 0.009
5/19/18 5:55p 73.4 82 67.6 1.0 S 5.0 73.4 29.872 0.00 472 0.000
5/19/18 5:50p 73.1 84 68.0 0.0 SSW 2.0 73.1 29.869 0.00 495 0.000
5/19/18 5:45p 72.6 84 67.5 0.0 S 1.0 72.6 29.866 0.00 526 0.000
5/19/18 5:40p 72.1 86 67.7 0.0 S 2.0 72.1 29.865 0.00 576 0.000
5/19/18 5:35p 71.7 86 67.3 0.0 SSE 3.0 71.7 29.866 0.00 621 0.000
5/19/18 5:30p 71.0 86 66.6 0.0 --- 0.0 71.0 29.867 0.00 592 0.000
5/19/18 5:25p 70.4 86 66.0 1.0 W 8.0 70.4 29.867 0.00 315 0.000
5/19/18 5:20p 70.2 86 65.8 0.0 W 4.0 70.2 29.866 0.00 230 0.000
5/19/18 5:15p 70.2 85 65.5 1.0 SSW 3.0 70.2 29.868 0.00 181 0.000
5/19/18 5:10p 70.4 85 65.7 0.0 W 2.0 70.4 29.871 0.00 157 0.000
5/19/18 5:05p 70.7 84 65.6 1.0 WNW 4.0 70.7 29.872 0.00 152 0.000
5/19/18 5:00p 71.1 84 66.0 0.0 W 6.0 71.1 29.873 0.00 169 0.006
5/19/18 4:55p 71.4 83 66.0 1.0 W 9.0 71.4 29.875 0.00 175 0.000
5/19/18 4:50p 72.1 83 66.6 1.0 WNW 9.0 72.1 29.876 0.00 154 0.000
5/19/18 4:45p 73.1 82 67.3 2.0 WNW 9.0 73.1 29.878 0.00 140 0.000
5/19/18 4:40p 73.8 81 67.6 2.0 W 10.0 73.8 29.880 0.00 159 0.000
5/19/18 4:35p 74.1 80 67.5 1.0 WSW 11.0 74.1 29.877 0.00 207 0.000
5/19/18 4:30p 74.4 81 68.2 0.0 WNW 4.0 74.4 29.879 0.00 299 0.000
5/19/18 4:25p 75.0 80 68.4 0.0 SSE 12.0 75.0 29.876 0.00 286 0.000
5/19/18 4:20p 76.1 77 68.4 1.0 SSE 12.0 76.1 29.876 0.00 81 0.000
5/19/18 4:15p 77.1 74 68.2 1.0 SSW 6.0 77.1 29.873 0.00 78 0.000
5/19/18 4:10p 78.0 74 69.0 1.0 S 6.0 78.0 29.872 0.00 149 0.000
5/19/18 4:05p 77.6 76 69.4 0.0 S 7.0 77.6 29.872 0.00 834 0.000
5/19/18 4:00p 77.1 75 68.6 1.0 SSE 8.0 77.1 29.872 0.00 745 0.014
5/19/18 3:55p 77.6 75 69.0 1.0 SSW 7.0 77.6 29.873 0.01 546 0.000
5/19/18 3:50p 77.5 76 69.3 1.0 WSW 8.0 77.5 29.869 0.00 656 0.000
5/19/18 3:45p 77.1 79 70.1 0.0 SSE 4.0 77.1 29.869 0.00 877 0.000
5/19/18 3:40p 76.1 79 69.1 1.0 S 7.0 76.1 29.872 0.00 891 0.000
5/19/18 3:35p 75.6 80 69.0 1.0 S 7.0 75.6 29.874 0.00 294 0.000
5/19/18 3:30p 75.6 80 69.0 1.0 S 7.0 75.6 29.875 0.00 280 0.000
5/19/18 3:25p 75.2 81 69.0 1.0 S 7.0 75.2 29.876 0.00 234 0.000
5/19/18 3:20p 75.1 81 68.9 2.0 SSE 11.0 75.1 29.878 0.00 267 0.000
5/19/18 3:15p 75.3 80 68.7 0.0 SE 5.0 75.3 29.878 0.00 267 0.000
5/19/18 3:10p 75.2 82 69.3 2.0 S 5.0 75.2 29.879 0.00 649 0.000
5/19/18 3:05p 75.4 81 69.2 1.0 S 7.0 75.4 29.880 0.00 932 0.000
5/19/18 3:00p 75.3 81 69.1 2.0 S 9.0 75.3 29.884 0.00 953 0.017
5/19/18 2:55p 75.0 81 68.8 1.0 S 10.0 75.0 29.878 0.00 867 0.000
5/19/18 2:50p 74.6 82 68.7 2.0 SSE 13.0 74.6 29.876 0.00 854 0.000
5/19/18 2:45p 74.4 83 68.9 1.0 SSW 4.0 74.4 29.876 0.00 855 0.000
5/19/18 2:40p 74.1 83 68.6 1.0 SSW 6.0 74.1 29.879 0.00 862 0.000
5/19/18 2:35p 73.5 85 68.7 0.0 NNW 4.0 73.5 29.879 0.00 875 0.000
5/19/18 2:30p 72.7 86 68.3 0.0 SSW 5.0 72.7 29.881 0.00 893 0.000
5/19/18 2:25p 71.9 86 67.5 1.0 SSW 5.0 71.9 29.881 0.00 890 0.000
5/19/18 2:20p 71.5 87 67.4 1.0 S 5.0 71.5 29.883 0.00 920 0.000
5/19/18 2:15p 71.0 87 66.9 1.0 SSW 8.0 71.0 29.880 0.00 248 0.000
5/19/18 2:10p 70.8 86 66.4 1.0 SSW 7.0 70.8 29.881 0.00 268 0.000
5/19/18 2:05p 70.6 87 66.5 1.0 SSW 4.0 70.6 29.884 0.00 228 0.000
5/19/18 2:00p 70.5 88 66.8 2.0 S 10.0 70.5 29.885 0.00 994 0.007
5/19/18 1:55p 69.8 88 66.1 1.0 S 4.0 69.8 29.885 0.00 713 0.000
5/19/18 1:50p 69.3 88 65.6 1.0 S 5.0 69.3 29.886 0.00 622 0.000
5/19/18 1:45p 69.0 88 65.3 1.0 SSW 6.0 69.0 29.885 0.00 259 0.000
5/19/18 1:40p 68.9 88 65.2 0.0 S 4.0 68.9 29.887 0.00 176 0.000
5/19/18 1:35p 68.7 87 64.7 0.0 SSW 3.0 68.7 29.889 0.00 170 0.000
5/19/18 1:30p 68.6 87 64.6 0.0 S 2.0 68.6 29.889 0.00 148 0.000
5/19/18 1:25p 68.5 87 64.5 0.0 SSE 3.0 68.5 29.890 0.00 140 0.000
5/19/18 1:20p 68.7 87 64.7 2.0 S 7.0 68.7 29.888 0.00 125 0.000
5/19/18 1:15p 69.3 87 65.3 1.0 SSW 9.0 69.3 29.886 0.02 85 0.000
5/19/18 1:10p 69.7 86 65.3 0.0 S 3.0 69.7 29.886 0.06 79 0.000
5/19/18 1:05p 69.8 86 65.4 0.0 SSW 6.0 69.8 29.887 0.01 123 0.000
5/19/18 1:00p 70.3 86 65.9 0.0 SE 5.0 70.3 29.887 0.00 120 0.006
5/19/18 12:55p 70.8 85 66.1 0.0 SSW 2.0 70.8 29.886 0.03 78 0.000
5/19/18 12:50p 71.5 85 66.8 0.0 S 2.0 71.5 29.885 0.03 83 0.000
5/19/18 12:45p 72.0 84 66.9 1.0 SSW 6.0 72.0 29.884 0.01 105 0.000
5/19/18 12:40p 72.0 84 66.9 1.0 SSE 5.0 72.0 29.884 0.00 205 0.000
5/19/18 12:35p 71.6 84 66.5 1.0 S 5.0 71.6 29.885 0.00 254 0.000
5/19/18 12:30p 71.5 85 66.8 0.0 S 6.0 71.5 29.886 0.00 200 0.000
5/19/18 12:25p 71.0 85 66.3 1.0 S 6.0 71.0 29.889 0.00 250 0.000
5/19/18 12:20p 70.7 86 66.3 1.0 SSW 6.0 70.7 29.889 0.00 226 0.000
5/19/18 12:15p 70.4 86 66.0 1.0 SSE 5.0 70.4 29.889 0.00 178 0.000
5/19/18 12:10p 70.2 86 65.8 0.0 SSW 3.0 70.2 29.889 0.00 261 0.000
5/19/18 12:05p 69.9 86 65.5 0.0 SSW 4.0 69.9 29.888 0.00 203 0.000
5/19/18 12:00p 69.8 86 65.4 1.0 S 5.0 69.8 29.889 0.00 146 0.005
5/19/18 11:55a 70.0 86 65.6 1.0 S 6.0 70.0 29.892 0.00 247 0.000
5/19/18 11:50a 70.0 87 66.0 0.0 SSW 3.0 70.0 29.894 0.00 208 0.000
5/19/18 11:45a 69.7 87 65.7 1.0 SSW 6.0 69.7 29.893 0.00 235 0.000
5/19/18 11:40a 69.6 87 65.6 1.0 S 5.0 69.6 29.891 0.00 288 0.000
5/19/18 11:35a 69.4 87 65.4 0.0 SSW 2.0 69.4 29.893 0.00 326 0.000
5/19/18 11:30a 69.0 88 65.3 0.0 S 2.0 69.0 29.893 0.00 248 0.000
5/19/18 11:25a 68.7 88 65.0 0.0 S 3.0 68.7 29.891 0.00 197 0.000
5/19/18 11:20a 68.6 88 64.9 1.0 SSW 4.0 68.6 29.893 0.00 165 0.000
5/19/18 11:15a 68.6 88 64.9 1.0 S 5.0 68.6 29.893 0.00 164 0.000
5/19/18 11:10a 68.5 88 64.8 0.0 S 5.0 68.5 29.895 0.00 191 0.000
5/19/18 11:05a 68.3 89 64.9 1.0 S 6.0 68.3 29.895 0.00 310 0.000
5/19/18 11:00a 68.1 88 64.4 1.0 SSW 8.0 68.1 29.896 0.00 272 0.004
5/19/18 10:55a 67.8 88 64.1 1.0 S 8.0 67.8 29.895 0.00 151 0.000
5/19/18 10:50a 68.0 88 64.3 1.0 S 8.0 68.0 29.898 0.00 129 0.000
5/19/18 10:45a 68.0 89 64.6 1.0 SSW 4.0 68.0 29.895 0.00 175 0.000
5/19/18 10:40a 68.2 89 64.8 1.0 S 6.0 68.2 29.897 0.00 188 0.000
5/19/18 10:35a 68.0 89 64.6 0.0 S 6.0 68.0 29.890 0.00 261 0.000
5/19/18 10:30a 67.6 89 64.2 0.0 SSW 3.0 67.6 29.891 0.00 176 0.000
5/19/18 10:25a 67.3 89 63.9 2.0 S 11.0 67.3 29.893 0.00 162 0.000
5/19/18 10:20a 67.2 89 63.8 1.0 S 6.0 67.2 29.896 0.00 217 0.000
5/19/18 10:15a 67.0 89 63.6 0.0 SSW 3.0 67.0 29.892 0.00 120 0.000
5/19/18 10:10a 66.9 89 63.6 1.0 SSW 5.0 66.9 29.893 0.00 76 0.000
5/19/18 10:05a 66.8 89 63.5 2.0 S 7.0 66.8 29.894 0.00 64 0.000
5/19/18 10:00a 67.0 89 63.6 1.0 S 7.0 67.0 29.890 0.00 47 0.002
5/19/18 9:55a 67.2 89 63.8 0.0 S 3.0 67.2 29.892 0.00 51 0.000
5/19/18 9:50a 67.3 89 63.9 1.0 SSE 4.0 67.3 29.892 0.00 91 0.000
5/19/18 9:45a 67.4 90 64.4 0.0 S 2.0 67.4 29.890 0.00 173 0.000
5/19/18 9:40a 67.0 90 64.0 1.0 S 10.0 67.0 29.890 0.00 323 0.000
5/19/18 9:35a 66.6 89 63.3 1.0 SSW 4.0 66.6 29.891 0.00 248 0.000
5/19/18 9:30a 66.2 89 62.9 0.0 S 5.0 66.2 29.892 0.00 129 0.000
5/19/18 9:25a 66.1 89 62.8 0.0 SSW 5.0 66.1 29.894 0.00 48 0.000
5/19/18 9:20a 66.1 89 62.8 1.0 SSW 5.0 66.1 29.896 0.00 32 0.000
5/19/18 9:15a 66.0 89 62.7 0.0 SSW 2.0 66.0 29.897 0.00 28 0.000
5/19/18 9:10a 66.0 89 62.7 0.0 SSW 2.0 66.0 29.897 0.00 28 0.000
5/19/18 9:05a 66.0 89 62.7 1.0 SSW 6.0 66.0 29.896 0.04 38 0.000
5/19/18 9:00a 66.0 89 62.7 0.0 S 4.0 66.0 29.894 0.00 17 0.001
5/19/18 8:55a 66.0 90 63.0 0.0 SSW 6.0 66.0 29.894 0.00 33 0.000
5/19/18 8:50a 66.0 89 62.7 1.0 SSW 6.0 66.0 29.894 0.00 31 0.000
5/19/18 8:45a 65.9 89 62.6 0.0 SSW 4.0 65.9 29.890 0.01 41 0.000
5/19/18 8:40a 65.9 89 62.6 1.0 SSW 4.0 65.9 29.891 0.00 30 0.000
5/19/18 8:35a 65.9 89 62.6 0.0 SSW 3.0 65.9 29.890 0.00 39 0.000
5/19/18 8:30a 65.9 89 62.6 1.0 SSW 5.0 65.9 29.885 0.00 50 0.000
5/19/18 8:25a 65.9 90 62.9 0.0 SSW 5.0 65.9 29.884 0.00 50 0.000
5/19/18 8:20a 65.9 90 62.9 0.0 --- 0.0 65.9 29.885 0.00 43 0.000
5/19/18 8:15a 65.8 90 62.8 0.0 S 1.0 65.8 29.882 0.00 58 0.000
5/19/18 8:10a 65.7 90 62.7 0.0 --- 0.0 65.7 29.881 0.00 39 0.000
5/19/18 8:05a 65.6 90 62.6 0.0 --- 0.0 65.6 29.883 0.00 22 0.000
5/19/18 8:00a 65.6 90 62.6 0.0 --- 0.0 65.6 29.881 0.00 13 0.001
5/19/18 7:55a 65.6 90 62.6 0.0 SSW 3.0 65.6 29.883 0.00 21 0.000
5/19/18 7:50a 65.5 90 62.5 0.0 SSW 2.0 65.5 29.881 0.00 22 0.000
5/19/18 7:45a 65.4 90 62.4 0.0 SW 2.0 65.4 29.878 0.00 29 0.000
5/19/18 7:40a 65.4 90 62.4 0.0 --- 0.0 65.4 29.877 0.00 24 0.000
5/19/18 7:35a 65.3 90 62.3 0.0 --- 0.0 65.3 29.876 0.00 27 0.000
5/19/18 7:30a 65.2 90 62.2 0.0 SSW 2.0 65.2 29.875 0.00 23 0.000
5/19/18 7:25a 65.2 90 62.2 0.0 --- 0.0 65.2 29.875 0.00 17 0.000
5/19/18 7:20a 65.1 90 62.1 0.0 --- 0.0 65.1 29.877 0.00 14 0.000
5/19/18 7:15a 65.1 90 62.1 0.0 --- 0.0 65.1 29.875 0.00 19 0.000
5/19/18 7:10a 65.0 90 62.0 0.0 --- 0.0 65.0 29.873 0.00 19 0.000
5/19/18 7:05a 65.0 90 62.0 0.0 --- 0.0 65.0 29.874 0.00 19 0.000
5/19/18 7:00a 64.9 90 61.9 0.0 --- 0.0 64.9 29.872 0.00 14 0.000
5/19/18 6:55a 64.7 90 61.7 0.0 --- 0.0 64.7 29.869 0.00 11 0.000
5/19/18 6:50a 64.7 90 61.7 0.0 --- 0.0 64.7 29.868 0.00 9 0.000
5/19/18 6:45a 64.6 90 61.6 0.0 --- 0.0 64.6 29.867 0.00 7 0.000
5/19/18 6:40a 64.6 90 61.6 0.0 --- 0.0 64.6 29.863 0.00 0 0.000
5/19/18 6:35a 64.5 90 61.5 0.0 --- 0.0 64.5 29.862 0.00 0 0.000
5/19/18 6:30a 64.5 90 61.5 0.0 --- 0.0 64.5 29.861 0.00 0 0.000
5/19/18 6:25a 64.4 90 61.4 0.0 --- 0.0 64.4 29.860 0.00 0 0.000
5/19/18 6:20a 64.4 90 61.4 0.0 --- 0.0 64.4 29.862 0.00 0 0.000
5/19/18 6:15a 64.3 90 61.3 0.0 --- 0.0 64.3 29.860 0.00 0 0.000
5/19/18 6:10a 64.3 90 61.3 0.0 --- 0.0 64.3 29.859 0.00 0 0.000
5/19/18 6:05a 64.3 90 61.3 0.0 --- 0.0 64.3 29.857 0.00 0 0.000
5/19/18 6:00a 64.3 90 61.3 0.0 --- 0.0 64.3 29.855 0.00 0 0.000
5/19/18 5:55a 64.3 90 61.3 0.0 --- 0.0 64.3 29.855 0.00 0 0.000
5/19/18 5:50a 64.3 90 61.3 0.0 --- 0.0 64.3 29.857 0.00 0 0.000
5/19/18 5:45a 64.3 90 61.3 0.0 --- 0.0 64.3 29.856 0.00 0 0.000
5/19/18 5:40a 64.3 90 61.3 0.0 --- 0.0 64.3 29.856 0.00 0 0.000
5/19/18 5:35a 64.3 90 61.3 0.0 --- 0.0 64.3 29.854 0.00 0 0.000
5/19/18 5:30a 64.3 90 61.3 0.0 --- 0.0 64.3 29.854 0.00 0 0.000
5/19/18 5:25a 64.2 90 61.2 0.0 --- 0.0 64.2 29.855 0.00 0 0.000
5/19/18 5:20a 64.1 90 61.1 0.0 --- 0.0 64.1 29.857 0.00 0 0.000
5/19/18 5:15a 64.1 90 61.1 0.0 --- 0.0 64.1 29.858 0.00 0 0.000
5/19/18 5:10a 64.1 90 61.1 0.0 --- 0.0 64.1 29.855 0.00 0 0.000
5/19/18 5:05a 64.1 90 61.1 0.0 --- 0.0 64.1 29.853 0.00 0 0.000
5/19/18 5:00a 64.0 90 61.0 0.0 --- 0.0 64.0 29.852 0.00 0 0.000
5/19/18 4:55a 64.0 90 61.0 0.0 --- 0.0 64.0 29.850 0.00 0 0.000
5/19/18 4:50a 63.9 89 60.6 0.0 --- 0.0 63.9 29.845 0.00 0 0.000
5/19/18 4:45a 63.9 89 60.6 0.0 --- 0.0 63.9 29.845 0.00 0 0.000
5/19/18 4:40a 64.0 89 60.7 0.0 --- 0.0 64.0 29.843 0.00 0 0.000
5/19/18 4:35a 64.0 89 60.7 0.0 --- 0.0 64.0 29.843 0.00 0 0.000
5/19/18 4:30a 64.1 89 60.8 0.0 --- 0.0 64.1 29.841 0.00 0 0.000
5/19/18 4:25a 64.2 89 60.9 0.0 --- 0.0 64.2 29.840 0.00 0 0.000
5/19/18 4:20a 64.3 89 61.0 0.0 --- 0.0 64.3 29.838 0.00 0 0.000
5/19/18 4:15a 64.4 89 61.1 0.0 --- 0.0 64.4 29.838 0.00 0 0.000
5/19/18 4:10a 64.4 89 61.1 0.0 --- 0.0 64.4 29.839 0.00 0 0.000
5/19/18 4:05a 64.4 89 61.1 0.0 --- 0.0 64.4 29.839 0.00 0 0.000
5/19/18 4:00a 64.5 89 61.2 0.0 --- 0.0 64.5 29.839 0.00 0 0.000
5/19/18 3:55a 64.5 89 61.2 0.0 --- 0.0 64.5 29.837 0.00 0 0.000
5/19/18 3:50a 64.5 89 61.2 0.0 --- 0.0 64.5 29.837 0.00 0 0.000
5/19/18 3:45a 64.5 89 61.2 0.0 --- 0.0 64.5 29.835 0.01 0 0.000
5/19/18 3:40a 64.5 89 61.2 0.0 --- 0.0 64.5 29.836 0.00 0 0.000
5/19/18 3:35a 64.5 89 61.2 0.0 --- 0.0 64.5 29.834 0.00 0 0.000
5/19/18 3:30a 64.6 89 61.3 0.0 --- 0.0 64.6 29.837 0.00 0 0.000
5/19/18 3:25a 64.5 89 61.2 0.0 --- 0.0 64.5 29.837 0.00 0 0.000
5/19/18 3:20a 64.6 89 61.3 0.0 --- 0.0 64.6 29.837 0.00 0 0.000
5/19/18 3:15a 64.7 89 61.4 0.0 --- 0.0 64.7 29.837 0.00 0 0.000
5/19/18 3:10a 64.7 89 61.4 0.0 --- 0.0 64.7 29.836 0.00 0 0.000
5/19/18 3:05a 64.7 89 61.4 0.0 --- 0.0 64.7 29.836 0.00 0 0.000
5/19/18 3:00a 64.8 89 61.5 0.0 --- 0.0 64.8 29.837 0.00 0 0.000
5/19/18 2:55a 64.8 89 61.5 0.0 --- 0.0 64.8 29.836 0.00 0 0.000
5/19/18 2:50a 64.9 89 61.6 0.0 --- 0.0 64.9 29.836 0.00 0 0.000
5/19/18 2:45a 65.0 89 61.7 0.0 --- 0.0 65.0 29.836 0.00 0 0.000
5/19/18 2:40a 65.1 89 61.8 0.0 --- 0.0 65.1 29.837 0.00 0 0.000
5/19/18 2:35a 65.1 89 61.8 0.0 --- 0.0 65.1 29.836 0.00 0 0.000
5/19/18 2:30a 65.2 89 61.9 0.0 --- 0.0 65.2 29.837 0.00 0 0.000
5/19/18 2:25a 65.3 89 62.0 0.0 --- 0.0 65.3 29.839 0.00 0 0.000
5/19/18 2:20a 65.4 89 62.1 0.0 --- 0.0 65.4 29.840 0.00 0 0.000
5/19/18 2:15a 65.4 89 62.1 0.0 --- 0.0 65.4 29.839 0.00 0 0.000
5/19/18 2:10a 65.5 89 62.2 0.0 --- 0.0 65.5 29.838 0.00 0 0.000
5/19/18 2:05a 65.6 89 62.3 0.0 --- 0.0 65.6 29.836 0.00 0 0.000
5/19/18 2:00a 65.7 89 62.4 0.0 --- 0.0 65.7 29.837 0.00 0 0.000
5/19/18 1:55a 65.7 89 62.4 0.0 --- 0.0 65.7 29.839 0.00 0 0.000
5/19/18 1:50a 65.8 89 62.5 0.0 --- 0.0 65.8 29.840 0.00 0 0.000
5/19/18 1:45a 65.9 89 62.6 0.0 --- 0.0 65.9 29.841 0.00 0 0.000
5/19/18 1:40a 66.0 89 62.7 0.0 S 1.0 66.0 29.840 0.00 0 0.000
5/19/18 1:35a 66.1 89 62.8 0.0 --- 0.0 66.1 29.844 0.00 0 0.000
5/19/18 1:30a 66.1 89 62.8 0.0 --- 0.0 66.1 29.843 0.00 0 0.000
5/19/18 1:25a 66.2 89 62.9 0.0 S 3.0 66.2 29.841 0.00 0 0.000
5/19/18 1:20a 66.2 89 62.9 0.0 --- 0.0 66.2 29.837 0.00 0 0.000
5/19/18 1:15a 66.3 89 63.0 0.0 --- 0.0 66.3 29.834 0.00 0 0.000
5/19/18 1:10a 66.5 89 63.2 0.0 --- 0.0 66.5 29.833 0.00 0 0.000
5/19/18 1:05a 66.6 89 63.3 0.0 --- 0.0 66.6 29.833 0.00 0 0.000
5/19/18 1:00a 66.7 89 63.4 0.0 SSE 3.0 66.7 29.831 0.00 0 0.000
5/19/18 12:55a 66.9 89 63.6 0.0 --- 0.0 66.9 29.832 0.00 0 0.000
5/19/18 12:50a 67.1 89 63.7 0.0 --- 0.0 67.1 29.828 0.00 0 0.000
5/19/18 12:45a 67.3 89 63.9 0.0 ESE 1.0 67.3 29.829 0.00 0 0.000
5/19/18 12:40a 67.6 89 64.2 0.0 S 2.0 67.6 29.831 0.00 0 0.000
5/19/18 12:35a 67.9 89 64.5 0.0 ESE 4.0 67.9 29.832 0.00 0 0.000
5/19/18 12:30a 68.1 89 64.7 0.0 --- 0.0 68.1 29.833 0.00 0 0.000
5/19/18 12:25a 68.3 89 64.9 0.0 ESE 3.0 68.3 29.830 0.00 0 0.000
5/19/18 12:20a 68.4 89 65.0 0.0 --- 0.0 68.4 29.833 0.00 0 0.000
5/19/18 12:15a 68.4 89 65.0 0.0 E 1.0 68.4 29.833 0.00 0 0.000
5/19/18 12:10a 68.4 89 65.0 0.0 E 3.0 68.4 29.832 0.00 0 0.000
5/19/18 12:05a 68.5 89 65.1 0.0 ESE 1.0 68.5 29.834 0.00 0 0.000

11,961 Page Views